createdAt,value
2023-02-02T00:03:34.389Z,13.65
2023-02-02T00:07:16.491Z,7.97
2023-02-02T00:10:58.629Z,10.65
2023-02-02T00:14:40.846Z,10.77
2023-02-02T00:18:23.159Z,13.63
2023-02-02T00:22:05.169Z,13.40
2023-02-02T00:25:51.406Z,12.65
2023-02-02T00:29:33.901Z,20.95
2023-02-02T00:33:15.809Z,14.43
2023-02-02T00:36:57.784Z,9.13
2023-02-02T00:40:41.064Z,10.77
2023-02-02T00:44:41.648Z,7.05
2023-02-02T00:48:23.577Z,11.77
2023-02-02T00:52:05.859Z,9.52
2023-02-02T00:55:47.857Z,6.55
2023-02-02T00:59:29.785Z,17.52
2023-02-02T01:03:13.354Z,14.93
2023-02-02T01:06:55.438Z,19.45
2023-02-02T01:10:37.428Z,17.38
2023-02-02T01:14:19.415Z,12.20
2023-02-02T01:18:01.310Z,12.85
2023-02-02T01:21:43.628Z,11.80
2023-02-02T01:25:25.930Z,15.07
2023-02-02T01:29:08.144Z,14.60
2023-02-02T01:32:50.083Z,9.98
2023-02-02T01:36:32.012Z,7.47
2023-02-02T01:40:14.167Z,15.27
2023-02-02T01:44:05.188Z,13.60
2023-02-02T01:47:51.729Z,13.20
2023-02-02T01:51:45.573Z,11.32
2023-02-02T01:55:30.321Z,11.88
2023-02-02T01:59:14.904Z,15.73
2023-02-02T02:03:01.804Z,11.05
2023-02-02T02:06:45.482Z,9.18
2023-02-02T02:10:27.427Z,10.73
2023-02-02T02:14:30.136Z,12.63
2023-02-02T02:18:49.192Z,12.52
2023-02-02T02:23:01.937Z,13.45
2023-02-02T02:26:51.687Z,10.05
2023-02-02T02:31:11.356Z,9.98
2023-02-02T02:35:02.225Z,8.80
2023-02-02T02:39:04.485Z,23.90
2023-02-02T02:42:55.042Z,18.45
2023-02-02T02:46:38.191Z,14.15
2023-02-02T02:50:20.938Z,15.80
2023-02-02T02:54:03.110Z,13.85
2023-02-02T02:57:47.788Z,17.13
2023-02-02T03:01:43.158Z,14.10
2023-02-02T03:05:50.015Z,13.57
2023-02-02T03:09:39.382Z,11.00
2023-02-02T03:13:21.473Z,20.58
2023-02-02T03:17:03.942Z,20.52
2023-02-02T03:20:46.738Z,13.13
2023-02-02T03:24:28.700Z,17.05
2023-02-02T03:28:10.727Z,12.32
2023-02-02T03:31:52.810Z,10.00
2023-02-02T03:35:34.784Z,13.13
2023-02-02T03:39:16.690Z,12.13
2023-02-02T03:42:58.592Z,9.95
2023-02-02T03:46:40.552Z,11.40
2023-02-02T03:54:21.420Z,12.77
2023-02-02T03:58:03.394Z,6.97
2023-02-02T04:01:45.373Z,12.95
2023-02-02T04:05:28.002Z,13.40
2023-02-02T04:09:09.970Z,12.38
2023-02-02T04:12:51.874Z,11.50
2023-02-02T04:16:37.208Z,12.38
2023-02-02T04:20:19.192Z,8.73
2023-02-02T04:24:01.168Z,6.95
2023-02-02T04:27:43.123Z,7.30
2023-02-02T04:31:25.245Z,18.95
2023-02-02T04:35:07.795Z,12.43
2023-02-02T04:38:50.735Z,13.63
2023-02-02T04:42:34.461Z,10.70
2023-02-02T04:46:16.609Z,12.60
2023-02-02T04:49:58.583Z,14.15
2023-02-02T04:53:41.692Z,8.65
2023-02-02T04:57:23.655Z,10.48
2023-02-02T05:01:13.892Z,9.77
2023-02-02T05:04:56.047Z,14.68
2023-02-02T05:08:38.231Z,9.13
2023-02-02T05:12:20.176Z,8.27
2023-02-02T05:16:02.120Z,7.78
2023-02-02T05:19:44.011Z,10.75
2023-02-02T05:23:25.971Z,8.82
2023-02-02T05:27:07.944Z,13.40
2023-02-02T05:30:50.552Z,12.82
2023-02-02T05:34:32.556Z,8.57
2023-02-02T05:38:15.445Z,8.13
2023-02-02T05:41:57.375Z,9.18
2023-02-02T05:45:39.370Z,8.25
2023-02-02T05:49:21.342Z,7.60
2023-02-02T05:53:03.394Z,6.28
2023-02-02T05:56:49.949Z,7.18
2023-02-02T06:00:32.399Z,6.82
2023-02-02T06:04:15.517Z,8.45
2023-02-02T06:07:57.505Z,8.10
2023-02-02T06:11:39.608Z,6.93
2023-02-02T06:15:21.671Z,5.20
2023-02-02T06:19:04.096Z,8.90
2023-02-02T06:22:46.089Z,5.70
2023-02-02T06:26:28.460Z,10.20
2023-02-02T06:30:11.218Z,6.90
2023-02-02T06:33:55.822Z,12.23
2023-02-02T06:37:39.198Z,7.05
2023-02-02T06:41:21.488Z,7.07
2023-02-02T06:45:04.606Z,5.93
2023-02-02T06:48:46.571Z,5.07
2023-02-02T06:52:28.619Z,7.32
2023-02-02T06:56:13.078Z,4.53
2023-02-02T06:59:55.078Z,6.90
2023-02-02T07:03:37.295Z,5.18
2023-02-02T07:07:19.302Z,7.75
2023-02-02T07:11:12.758Z,4.57
2023-02-02T07:14:59.491Z,5.60
2023-02-02T07:18:45.098Z,5.18
2023-02-02T07:22:27.041Z,5.88
2023-02-02T07:26:10.152Z,7.85
2023-02-02T07:29:52.122Z,3.25
2023-02-02T07:33:38.807Z,6.03
2023-02-02T07:37:20.741Z,4.30
2023-02-02T07:41:02.936Z,4.85
2023-02-02T07:44:44.907Z,3.28
2023-02-02T07:48:26.798Z,4.60
2023-02-02T07:52:08.756Z,10.00
2023-02-02T07:55:50.800Z,3.38
2023-02-02T07:59:32.728Z,3.65
2023-02-02T08:03:14.711Z,5.20
2023-02-02T08:06:56.699Z,5.00
2023-02-02T08:10:38.612Z,6.90
2023-02-02T08:14:20.598Z,6.80
2023-02-02T08:18:02.498Z,6.85
2023-02-02T08:21:44.828Z,6.78
2023-02-02T08:25:27.160Z,3.72
2023-02-02T08:29:10.239Z,5.55
2023-02-02T08:32:53.522Z,9.07
2023-02-02T08:36:36.014Z,6.20
2023-02-02T08:40:18.546Z,7.35
2023-02-02T08:44:00.880Z,10.82
2023-02-02T08:47:43.055Z,6.15
2023-02-02T08:51:25.271Z,4.53
2023-02-02T08:55:07.397Z,8.98
2023-02-02T08:58:58.873Z,7.32
2023-02-02T09:02:40.949Z,7.13
2023-02-02T09:06:27.883Z,6.28
2023-02-02T09:10:10.765Z,6.78
2023-02-02T09:13:56.537Z,10.55
2023-02-02T09:17:38.531Z,4.63
2023-02-02T09:21:21.198Z,5.80
2023-02-02T09:25:03.449Z,10.38
2023-02-02T09:28:48.930Z,8.02
2023-02-02T09:32:30.890Z,8.52
2023-02-02T09:36:32.377Z,7.32
2023-02-02T09:40:19.203Z,10.70
2023-02-02T09:44:37.820Z,6.10
2023-02-02T09:48:44.544Z,10.97
2023-02-02T09:52:35.848Z,11.25
2023-02-02T09:56:42.291Z,12.05
2023-02-02T10:00:30.639Z,9.63
2023-02-02T10:04:22.340Z,6.57
2023-02-02T10:08:07.938Z,8.13
2023-02-02T10:12:07.716Z,20.08
2023-02-02T10:16:01.594Z,14.80
2023-02-02T10:19:44.714Z,5.53
2023-02-02T10:23:39.540Z,8.48
2023-02-02T10:27:36.073Z,7.28
2023-02-02T10:31:40.035Z,7.00
2023-02-02T10:35:57.253Z,4.00
2023-02-02T10:39:57.432Z,8.85
2023-02-02T10:43:59.937Z,5.97
2023-02-02T10:47:42.052Z,6.80
2023-02-02T10:51:28.020Z,5.05
2023-02-02T10:55:22.013Z,12.18
2023-02-02T10:59:19.569Z,9.82
2023-02-02T11:03:04.841Z,8.20
2023-02-02T11:06:50.011Z,5.57
2023-02-02T11:10:32.986Z,4.13
2023-02-02T11:14:44.555Z,6.10
2023-02-02T11:18:29.002Z,5.28
2023-02-02T11:22:37.317Z,6.25
2023-02-02T11:26:19.620Z,4.57
2023-02-02T11:30:22.634Z,12.18
2023-02-02T11:34:18.268Z,4.22
2023-02-02T11:38:16.694Z,5.15
2023-02-02T11:42:07.512Z,3.90
2023-02-02T11:45:57.322Z,3.65
2023-02-02T11:49:44.001Z,3.38
2023-02-02T11:53:32.954Z,4.55
2023-02-02T11:57:19.871Z,1.70
2023-02-02T12:01:03.816Z,2.38
2023-02-02T12:04:50.568Z,4.47
2023-02-02T12:08:32.613Z,2.28
2023-02-02T12:12:49.555Z,2.63
2023-02-02T12:16:53.888Z,1.65
2023-02-02T12:20:42.531Z,2.47
2023-02-02T12:24:31.274Z,3.00
2023-02-02T12:28:13.255Z,4.90
2023-02-02T12:32:01.154Z,5.05
2023-02-02T12:36:18.092Z,4.18
2023-02-02T12:40:15.395Z,5.22
2023-02-02T12:44:01.392Z,5.30
2023-02-02T12:48:00.276Z,4.05
2023-02-02T12:51:51.113Z,4.07
2023-02-02T12:56:20.975Z,5.72
2023-02-02T13:00:20.827Z,1.63
2023-02-02T13:04:23.429Z,2.25
2023-02-02T13:08:19.825Z,2.63
2023-02-02T13:12:11.559Z,2.92
2023-02-02T13:15:59.587Z,4.53
2023-02-02T13:23:35.088Z,3.65
2023-02-02T13:27:20.292Z,2.17
2023-02-02T13:31:07.777Z,3.42
2023-02-02T13:34:52.800Z,1.55
2023-02-02T13:38:39.208Z,1.55
2023-02-02T13:42:49.208Z,2.88
2023-02-02T13:46:31.114Z,2.63
2023-02-02T13:50:19.912Z,3.08
2023-02-02T13:54:07.861Z,4.03
2023-02-02T13:58:12.098Z,4.65
2023-02-02T14:01:56.988Z,3.17
2023-02-02T14:05:41.698Z,4.25
2023-02-02T14:09:29.405Z,1.45
2023-02-02T14:13:36.016Z,4.50
2023-02-02T14:17:21.807Z,2.45
2023-02-02T14:21:04.184Z,3.95
2023-02-02T14:24:53.722Z,5.55
2023-02-02T14:28:44.664Z,7.43
2023-02-02T14:32:29.587Z,2.95
2023-02-02T14:36:15.196Z,1.30
2023-02-02T14:40:06.568Z,3.13
2023-02-02T14:43:52.320Z,6.43
2023-02-02T14:47:51.781Z,1.67
2023-02-02T14:51:46.254Z,0.80
2023-02-02T14:55:29.128Z,3.42
2023-02-02T14:59:20.411Z,6.93
2023-02-02T15:03:57.411Z,3.80
2023-02-02T15:07:52.981Z,7.30
2023-02-02T15:12:02.130Z,4.20
2023-02-02T15:15:45.688Z,2.33
2023-02-02T15:19:41.164Z,6.60
2023-02-02T15:23:25.664Z,7.95
2023-02-02T15:27:16.053Z,3.15
2023-02-02T15:31:17.768Z,5.13
2023-02-02T15:35:03.727Z,3.60
2023-02-02T15:38:48.207Z,7.15
2023-02-02T15:42:55.159Z,2.38
2023-02-02T15:46:37.161Z,3.83
2023-02-02T15:50:21.055Z,7.20
2023-02-02T15:54:03.037Z,7.85
2023-02-02T15:57:45.675Z,5.97
2023-02-02T16:01:32.376Z,2.35
2023-02-02T16:05:51.983Z,2.67
2023-02-02T16:09:35.815Z,2.88
2023-02-02T16:13:27.908Z,4.80
2023-02-02T16:17:18.971Z,3.30
2023-02-02T16:21:04.887Z,5.18
2023-02-02T16:24:53.936Z,4.55
2023-02-02T16:28:36.043Z,5.32
2023-02-02T16:32:32.605Z,3.80
2023-02-02T16:36:25.510Z,7.18
2023-02-02T16:40:25.605Z,4.78
2023-02-02T16:44:31.470Z,4.38
2023-02-02T16:48:47.622Z,2.75
2023-02-02T16:52:30.158Z,3.40
2023-02-02T16:56:35.698Z,4.43
2023-02-02T17:00:37.053Z,8.07
2023-02-02T17:04:35.228Z,6.00
2023-02-02T17:08:31.200Z,4.32
2023-02-02T17:12:30.723Z,3.10
2023-02-02T17:16:19.136Z,2.55
2023-02-02T17:20:01.124Z,3.47
2023-02-02T17:23:43.857Z,7.95
2023-02-02T17:27:33.955Z,5.70
2023-02-02T17:31:16.878Z,8.20
2023-02-02T17:34:58.891Z,1.58
2023-02-02T17:38:41.090Z,4.05
2023-02-02T17:42:27.395Z,2.45
2023-02-02T17:46:13.424Z,4.30
2023-02-02T17:49:55.487Z,4.90
2023-02-02T17:53:37.414Z,4.15
2023-02-02T17:57:20.177Z,6.32
2023-02-02T18:01:02.615Z,5.00
2023-02-02T18:04:45.697Z,7.78
2023-02-02T18:08:29.023Z,6.65
2023-02-02T18:12:10.994Z,9.15
2023-02-02T18:15:54.108Z,5.70
2023-02-02T18:19:36.163Z,4.50
2023-02-02T18:23:19.131Z,3.33
2023-02-02T18:27:01.070Z,4.35
2023-02-02T18:30:43.513Z,3.20
2023-02-02T18:34:29.752Z,3.30
2023-02-02T18:38:13.050Z,4.85
2023-02-02T18:41:54.999Z,3.67
2023-02-02T18:45:37.206Z,3.05
2023-02-02T18:49:19.516Z,2.90
2023-02-02T18:53:01.678Z,4.72
2023-02-02T18:56:43.626Z,6.53
2023-02-02T19:00:25.659Z,2.72
2023-02-02T19:04:08.788Z,3.95
2023-02-02T19:07:57.143Z,6.07
2023-02-02T19:11:43.107Z,7.68
2023-02-02T19:15:26.919Z,6.63
2023-02-02T19:19:29.287Z,3.42
2023-02-02T19:23:14.217Z,3.65
2023-02-02T19:26:56.442Z,5.22
2023-02-02T19:30:38.611Z,6.38
2023-02-02T19:34:22.610Z,4.32
2023-02-02T19:38:04.583Z,6.53
2023-02-02T19:41:47.062Z,5.63
2023-02-02T19:45:33.845Z,6.20
2023-02-02T19:49:36.280Z,4.40
2023-02-02T19:53:28.312Z,7.78
2023-02-02T19:57:13.507Z,6.15
2023-02-02T20:00:58.092Z,5.47
2023-02-02T20:04:40.164Z,3.85
2023-02-02T20:08:33.931Z,7.18
2023-02-02T20:12:25.420Z,7.55
2023-02-02T20:16:22.162Z,6.53
2023-02-02T20:20:24.505Z,6.32
2023-02-02T20:24:18.239Z,5.47
2023-02-02T20:28:08.680Z,6.65
2023-02-02T20:31:53.418Z,6.60
2023-02-02T20:35:39.728Z,5.95
2023-02-02T20:39:40.097Z,8.45
2023-02-02T20:43:22.970Z,2.20
2023-02-02T20:47:05.765Z,5.47
2023-02-02T20:50:48.066Z,5.38
2023-02-02T20:54:31.699Z,4.47
2023-02-02T20:58:13.684Z,8.27
2023-02-02T21:01:56.051Z,7.03
2023-02-02T21:05:38.216Z,8.75
2023-02-02T21:09:20.337Z,6.60
2023-02-02T21:13:02.360Z,2.92
2023-02-02T21:16:44.579Z,4.30
2023-02-02T21:20:26.825Z,5.93
2023-02-02T21:24:09.296Z,3.03
2023-02-02T21:27:51.355Z,6.18
2023-02-02T21:31:35.439Z,4.03
2023-02-02T21:35:17.594Z,4.30
2023-02-02T21:39:28.240Z,8.35
2023-02-02T21:43:16.541Z,6.05
2023-02-02T21:46:58.567Z,7.63
2023-02-02T21:50:41.776Z,4.25
2023-02-02T21:54:29.003Z,4.15
2023-02-02T21:58:22.358Z,7.63
2023-02-02T22:02:44.514Z,8.65
2023-02-02T22:06:37.546Z,6.22
2023-02-02T22:10:42.491Z,6.28
2023-02-02T22:14:38.020Z,6.40
2023-02-02T22:18:23.117Z,7.60
2023-02-02T22:22:22.673Z,8.95
2023-02-02T22:26:05.070Z,8.05
2023-02-02T22:29:47.304Z,4.88
2023-02-02T22:33:30.039Z,6.35
2023-02-02T22:37:12.037Z,5.22
2023-02-02T22:40:54.739Z,4.05
2023-02-02T22:44:36.791Z,4.28
2023-02-02T22:48:19.070Z,5.60
2023-02-02T22:52:01.118Z,3.47
2023-02-02T22:55:43.764Z,4.47
2023-02-02T22:59:25.746Z,4.93
2023-02-02T23:03:07.807Z,13.80
2023-02-02T23:06:50.019Z,6.22
2023-02-02T23:10:35.639Z,4.10
2023-02-02T23:14:17.749Z,9.02
2023-02-02T23:18:00.085Z,5.55
2023-02-02T23:21:42.388Z,5.32
2023-02-02T23:25:24.510Z,7.47
2023-02-02T23:29:06.774Z,6.28
2023-02-02T23:32:49.110Z,6.07
2023-02-02T23:36:31.136Z,5.47
2023-02-02T23:40:13.401Z,5.85
2023-02-02T23:43:55.403Z,5.93
2023-02-02T23:47:37.733Z,4.75
2023-02-02T23:51:19.922Z,5.20
2023-02-02T23:55:03.044Z,5.22
2023-02-02T23:58:45.078Z,5.00
